Time;durP1;ratioP1;P1;durP2;ratioP2;P2;SDS_P1;SDS_P2;PMS_P1;PMS_P2;Temp;Humidity;BMP_temperature;BMP_pressure;BME280_temperature;BME280_humidity;BME280_pressure;Samples;Min_cycle;Max_cycle;Signal;HPM_P1;HPM_P2
2024/04/16 00:01:01;;;;;;;;;;;25.90;50.80;;;;;;5425035;26;20250;-41
2024/04/16 00:03:30;;;;;;;;;;;25.90;50.20;;;;;;5424881;26;19940;-41
2024/04/16 00:05:56;;;;;;;;;;;25.90;50.20;;;;;;5425102;26;19936;-41
2024/04/16 00:08:22;;;;;;;;;;;25.90;50.20;;;;;;5425389;26;19929;-40
2024/04/16 00:10:49;;;;;;;;;;;25.90;50.10;;;;;;5425392;26;19929;-41
2024/04/16 00:13:14;;;;;;;;;;;25.80;50.00;;;;;;5424832;26;19929;-40
2024/04/16 00:15:40;;;;;;;;;;;25.80;50.00;;;;;;5393729;26;19936;-40
2024/04/16 00:18:06;;;;;;;;;;;25.80;50.10;;;;;;5393367;26;20666;-40
2024/04/16 00:20:32;;;;;;;;;;;25.80;50.00;;;;;;5424888;26;19941;-43
2024/04/16 00:22:58;;;;;;;;;;;25.80;50.30;;;;;;5424489;26;20273;-40
2024/04/16 00:25:24;;;;;;;;;;;25.80;50.50;;;;;;5424615;26;20023;-41
2024/04/16 00:27:50;;;;;;;;;;;25.80;50.50;;;;;;5425662;26;19964;-41
2024/04/16 00:30:16;;;;;;;;;;;25.70;50.30;;;;;;5390666;26;19929;-42
2024/04/16 00:32:42;;;;;;;;;;;25.80;50.30;;;;;;5423671;26;19936;-40
2024/04/16 00:35:08;;;;;;;;;;;25.70;50.40;;;;;;5424706;26;19941;-41
2024/04/16 00:37:34;;;;;;;;;;;25.70;50.40;;;;;;5413845;26;19940;-41
2024/04/16 00:40:00;;;;;;;;;;;25.70;50.40;;;;;;5424495;26;19935;-40
2024/04/16 00:42:25;;;;;;;;;;;25.70;50.40;;;;;;5425560;26;20440;-41
2024/04/16 00:44:51;;;;;;;;;;;25.70;50.50;;;;;;5424590;26;19936;-41
2024/04/16 00:47:17;;;;;;;;;;;25.60;50.40;;;;;;5422908;26;19998;-42
2024/04/16 00:49:43;;;;;;;;;;;25.60;50.40;;;;;;5424797;26;19936;-43
2024/04/16 00:52:11;;;;;;;;;;;25.60;50.50;;;;;;5424277;26;19936;-42
2024/04/16 00:54:37;;;;;;;;;;;25.60;50.80;;;;;;5424649;26;19946;-40
2024/04/16 00:57:05;;;;;;;;;;;25.60;50.90;;;;;;5424404;26;19937;-40
2024/04/16 00:59:31;;;;;;;;;;;25.60;50.80;;;;;;5416666;26;19929;-42
2024/04/16 01:01:57;;;;;;;;;;;25.50;50.80;;;;;;5423340;26;19960;-40
2024/04/16 01:04:23;;;;;;;;;;;25.50;50.70;;;;;;5424418;26;19941;-43
2024/04/16 01:06:51;;;;;;;;;;;25.50;50.70;;;;;;5424904;26;20008;-44
2024/04/16 01:09:18;;;;;;;;;;;25.50;50.70;;;;;;5424677;26;19936;-40
2024/04/16 01:11:46;;;;;;;;;;;25.50;50.70;;;;;;5424478;26;20649;-42
2024/04/16 01:14:12;;;;;;;;;;;25.50;50.80;;;;;;5423787;26;19937;-43
2024/04/16 01:16:38;;;;;;;;;;;25.40;50.70;;;;;;5424164;26;19929;-40
2024/04/16 01:19:07;;;;;;;;;;;25.40;50.70;;;;;;5379029;26;19936;-40
2024/04/16 01:21:33;;;;;;;;;;;25.40;51.10;;;;;;5424636;26;19937;-42
2024/04/16 01:23:59;;;;;;;;;;;25.40;50.60;;;;;;5423651;26;19935;-41
2024/04/16 01:26:25;;;;;;;;;;;25.40;50.40;;;;;;5411839;26;20008;-41
2024/04/16 01:28:51;;;;;;;;;;;25.40;50.30;;;;;;5424215;26;19929;-40
2024/04/16 01:31:17;;;;;;;;;;;25.30;50.20;;;;;;5423274;26;19936;-42
2024/04/16 01:33:43;;;;;;;;;;;25.30;50.30;;;;;;5423429;26;19961;-40
2024/04/16 01:36:09;;;;;;;;;;;25.30;50.40;;;;;;5423228;26;19929;-42
2024/04/16 01:38:36;;;;;;;;;;;25.30;50.40;;;;;;5424305;26;19983;-40
2024/04/16 01:41:02;;;;;;;;;;;25.20;50.40;;;;;;5423267;26;19936;-44
2024/04/16 01:43:28;;;;;;;;;;;25.20;50.50;;;;;;5424069;26;20261;-40
2024/04/16 01:45:54;;;;;;;;;;;25.20;50.40;;;;;;5423670;26;19972;-40
2024/04/16 01:48:22;;;;;;;;;;;25.20;50.30;;;;;;5423736;26;19929;-41
2024/04/16 01:50:50;;;;;;;;;;;25.20;50.20;;;;;;5423973;26;19936;-43
2024/04/16 01:53:17;;;;;;;;;;;25.20;50.10;;;;;;5422463;26;19929;-41
2024/04/16 01:55:43;;;;;;;;;;;25.20;50.10;;;;;;5423285;26;19966;-41
2024/04/16 01:58:09;;;;;;;;;;;25.20;50.10;;;;;;5423251;26;19969;-41
2024/04/16 02:00:35;;;;;;;;;;;25.10;50.00;;;;;;5423371;26;20012;-42
2024/04/16 02:03:02;;;;;;;;;;;25.10;50.00;;;;;;5423226;26;19941;-40
2024/04/16 02:05:29;;;;;;;;;;;25.10;50.10;;;;;;5422888;26;19937;-40
2024/04/16 02:07:55;;;;;;;;;;;25.10;50.10;;;;;;5391633;26;20242;-41
2024/04/16 02:10:21;;;;;;;;;;;25.10;50.20;;;;;;5409565;26;19961;-41
2024/04/16 02:12:47;;;;;;;;;;;25.00;50.20;;;;;;5424951;26;19932;-40
2024/04/16 02:15:13;;;;;;;;;;;25.00;50.30;;;;;;5425921;26;19984;-41
2024/04/16 02:17:39;;;;;;;;;;;25.00;50.20;;;;;;5427615;26;20066;-40
2024/04/16 02:20:05;;;;;;;;;;;25.00;50.00;;;;;;5425962;26;19929;-40
2024/04/16 02:22:31;;;;;;;;;;;25.00;50.00;;;;;;5426533;26;19936;-42
2024/04/16 02:24:57;;;;;;;;;;;25.00;49.80;;;;;;5426851;26;20277;-41
2024/04/16 02:27:23;;;;;;;;;;;24.90;49.80;;;;;;5426993;26;19929;-40
2024/04/16 02:29:49;;;;;;;;;;;24.90;49.80;;;;;;5426753;26;19929;-40
2024/04/16 02:32:14;;;;;;;;;;;24.90;49.90;;;;;;5424405;26;19929;-41
2024/04/16 02:34:41;;;;;;;;;;;24.90;49.90;;;;;;5426516;26;19937;-41
2024/04/16 02:37:06;;;;;;;;;;;24.90;49.80;;;;;;5426130;26;19937;-41
2024/04/16 02:39:32;;;;;;;;;;;24.80;49.80;;;;;;5424095;26;19976;-40
2024/04/16 02:41:58;;;;;;;;;;;24.80;49.80;;;;;;5426415;26;19936;-40
2024/04/16 02:44:24;;;;;;;;;;;24.80;49.70;;;;;;5426238;26;19937;-40
2024/04/16 02:46:50;;;;;;;;;;;24.80;49.70;;;;;;5418130;26;20352;-40
2024/04/16 02:49:16;;;;;;;;;;;24.80;49.80;;;;;;5426097;26;20672;-40
2024/04/16 02:51:42;;;;;;;;;;;24.70;49.70;;;;;;5426622;26;19953;-40
2024/04/16 02:54:08;;;;;;;;;;;24.70;49.80;;;;;;5425771;26;20320;-41
2024/04/16 02:56:34;;;;;;;;;;;24.70;49.70;;;;;;5426659;26;19929;-42
2024/04/16 02:59:00;;;;;;;;;;;24.60;49.70;;;;;;5411464;26;19937;-41
2024/04/16 03:01:26;;;;;;;;;;;24.60;49.80;;;;;;5426567;26;19935;-40
2024/04/16 03:03:56;;;;;;;;;;;24.60;49.70;;;;;;5426556;26;20016;-41
2024/04/16 03:06:21;;;;;;;;;;;24.60;49.80;;;;;;5425771;26;19929;-43
2024/04/16 03:08:50;;;;;;;;;;;24.60;49.80;;;;;;5425193;26;19981;-40
2024/04/16 03:11:16;;;;;;;;;;;24.60;49.90;;;;;;5425979;26;20542;-42
2024/04/16 03:13:42;;;;;;;;;;;24.50;49.90;;;;;;5426430;26;19936;-42
2024/04/16 03:16:08;;;;;;;;;;;24.50;49.90;;;;;;5425619;26;20712;-42
2024/04/16 03:18:34;;;;;;;;;;;24.50;49.90;;;;;;5426440;26;19929;-40
2024/04/16 03:21:00;;;;;;;;;;;24.50;49.90;;;;;;5425681;26;19929;-43
2024/04/16 03:23:26;;;;;;;;;;;24.50;50.00;;;;;;5413640;26;19935;-40
2024/04/16 03:25:52;;;;;;;;;;;24.40;49.90;;;;;;5424970;26;19936;-43
2024/04/16 03:28:18;;;;;;;;;;;24.40;49.90;;;;;;5426446;26;20388;-44
2024/04/16 03:30:43;;;;;;;;;;;24.40;50.00;;;;;;5425512;26;19929;-43
2024/04/16 03:33:09;;;;;;;;;;;24.40;50.00;;;;;;5425353;26;19965;-42
2024/04/16 03:35:35;;;;;;;;;;;24.30;50.00;;;;;;5425897;26;19950;-40
2024/04/16 03:38:01;;;;;;;;;;;24.30;50.00;;;;;;5425720;26;19978;-40
2024/04/16 03:40:28;;;;;;;;;;;24.30;50.10;;;;;;5426046;26;19936;-40
2024/04/16 03:42:53;;;;;;;;;;;24.20;50.10;;;;;;5425714;26;19933;-41
2024/04/16 03:45:19;;;;;;;;;;;24.30;50.10;;;;;;5424277;26;19929;-41
2024/04/16 03:47:45;;;;;;;;;;;24.20;50.10;;;;;;5426152;26;19929;-40
2024/04/16 03:50:11;;;;;;;;;;;24.20;50.10;;;;;;5425454;26;19941;-41
2024/04/16 03:52:37;;;;;;;;;;;24.20;50.10;;;;;;5425895;26;19936;-41
2024/04/16 03:55:05;;;;;;;;;;;24.20;50.10;;;;;;5425185;26;20503;-40
2024/04/16 03:57:31;;;;;;;;;;;24.10;50.10;;;;;;5425658;26;19936;-41
2024/04/16 04:02:41;;;;;;;;;;;24.10;50.20;;;;;;5416294;26;20002;-40
2024/04/16 04:05:07;;;;;;;;;;;24.10;50.20;;;;;;5424555;26;19929;-40
2024/04/16 04:07:33;;;;;;;;;;;24.10;50.30;;;;;;5425564;26;19929;-41
2024/04/16 04:09:59;;;;;;;;;;;24.00;50.30;;;;;;5425367;26;19936;-40
2024/04/16 04:12:25;;;;;;;;;;;24.00;50.30;;;;;;5425589;26;19975;-40
2024/04/16 04:14:51;;;;;;;;;;;24.00;50.30;;;;;;5425394;26;19940;-40
2024/04/16 04:17:16;;;;;;;;;;;24.00;50.30;;;;;;5424293;26;19929;-41
2024/04/16 04:19:45;;;;;;;;;;;24.00;50.30;;;;;;5424526;26;20215;-41
2024/04/16 04:22:11;;;;;;;;;;;23.90;50.90;;;;;;5424812;26;19941;-42
2024/04/16 04:24:37;;;;;;;;;;;23.90;50.30;;;;;;5425159;26;19929;-40
2024/04/16 04:27:03;;;;;;;;;;;23.80;50.30;;;;;;5424414;26;19929;-40
2024/04/16 04:29:29;;;;;;;;;;;23.80;50.40;;;;;;5425202;26;20353;-41
2024/04/16 04:31:56;;;;;;;;;;;23.80;50.40;;;;;;5424426;26;19944;-40
2024/04/16 04:34:21;;;;;;;;;;;23.80;50.40;;;;;;5418484;26;19936;-40
2024/04/16 04:36:47;;;;;;;;;;;23.80;50.40;;;;;;5424364;26;19936;-40
2024/04/16 04:39:13;;;;;;;;;;;23.80;50.50;;;;;;5424803;26;19949;-41
2024/04/16 04:41:39;;;;;;;;;;;23.80;50.50;;;;;;5425169;26;19975;-40
2024/04/16 04:44:05;;;;;;;;;;;23.70;50.50;;;;;;5424632;26;19929;-41
2024/04/16 04:46:31;;;;;;;;;;;23.70;50.50;;;;;;5424552;26;19961;-42
2024/04/16 04:48:57;;;;;;;;;;;23.70;50.50;;;;;;5419618;26;19929;-41
2024/04/16 04:51:23;;;;;;;;;;;23.70;50.50;;;;;;5425209;26;19929;-42
2024/04/16 04:53:49;;;;;;;;;;;23.70;50.60;;;;;;5425297;26;19936;-41
2024/04/16 04:56:15;;;;;;;;;;;23.60;50.50;;;;;;5424074;26;19941;-40
2024/04/16 04:58:41;;;;;;;;;;;23.60;50.60;;;;;;5424515;26;19933;-42
2024/04/16 05:01:06;;;;;;;;;;;23.60;50.60;;;;;;5423996;26;20613;-41
2024/04/16 05:03:32;;;;;;;;;;;23.60;50.60;;;;;;5424223;26;19937;-40
2024/04/16 05:05:58;;;;;;;;;;;23.50;50.60;;;;;;5423577;26;19936;-40
2024/04/16 05:08:28;;;;;;;;;;;23.50;50.60;;;;;;5424532;26;19929;-40
2024/04/16 05:10:54;;;;;;;;;;;23.50;50.70;;;;;;5423900;26;20472;-41
2024/04/16 05:13:20;;;;;;;;;;;23.50;50.70;;;;;;5424165;26;19949;-41
2024/04/16 05:15:45;;;;;;;;;;;23.40;50.70;;;;;;5423614;26;20716;-40
2024/04/16 05:18:12;;;;;;;;;;;23.50;50.80;;;;;;5423859;26;20019;-41
2024/04/16 05:20:38;;;;;;;;;;;23.40;50.80;;;;;;5424367;26;19932;-42
2024/04/16 05:23:04;;;;;;;;;;;23.40;50.80;;;;;;5423720;26;19936;-42
2024/04/16 05:25:30;;;;;;;;;;;23.40;50.80;;;;;;5424154;26;19975;-41
2024/04/16 05:27:56;;;;;;;;;;;23.40;50.80;;;;;;5423487;26;19936;-42
2024/04/16 05:30:22;;;;;;;;;;;23.30;50.80;;;;;;5424038;26;19945;-43
2024/04/16 05:32:49;;;;;;;;;;;23.30;50.80;;;;;;5424129;26;19936;-43
2024/04/16 05:35:15;;;;;;;;;;;23.30;50.90;;;;;;5422901;26;19929;-42
2024/04/16 05:37:41;;;;;;;;;;;23.30;50.90;;;;;;5423371;26;19936;-41
2024/04/16 05:40:07;;;;;;;;;;;23.30;51.00;;;;;;5423540;26;19940;-40
2024/04/16 05:42:33;;;;;;;;;;;23.20;50.90;;;;;;5424056;26;19929;-43
2024/04/16 05:44:59;;;;;;;;;;;23.20;50.90;;;;;;5423432;26;20384;-41
2024/04/16 05:47:25;;;;;;;;;;;23.20;51.00;;;;;;5426406;26;19941;-41
2024/04/16 05:49:51;;;;;;;;;;;23.20;51.00;;;;;;5427213;26;19933;-43
2024/04/16 05:52:17;;;;;;;;;;;23.20;51.00;;;;;;5426997;26;19929;-41
2024/04/16 05:54:42;;;;;;;;;;;23.10;51.00;;;;;;5426836;26;19929;-45
2024/04/16 05:57:08;;;;;;;;;;;23.10;51.10;;;;;;5426604;26;19936;-41
2024/04/16 05:59:34;;;;;;;;;;;23.10;51.10;;;;;;5426932;26;20376;-42
2024/04/16 06:02:00;;;;;;;;;;;23.10;51.10;;;;;;5426687;26;19929;-40
2024/04/16 06:04:27;;;;;;;;;;;23.10;51.20;;;;;;5427544;26;19929;-41
2024/04/16 06:06:52;;;;;;;;;;;23.00;51.10;;;;;;5426734;26;19936;-41
2024/04/16 06:09:18;;;;;;;;;;;23.00;51.10;;;;;;5427112;26;19929;-43
2024/04/16 06:11:44;;;;;;;;;;;23.00;51.20;;;;;;5369658;26;19938;-45
2024/04/16 06:14:10;;;;;;;;;;;23.00;51.20;;;;;;5425066;26;19929;-41
2024/04/16 06:16:36;;;;;;;;;;;22.90;51.20;;;;;;5426380;26;19937;-42
2024/04/16 06:19:02;;;;;;;;;;;22.90;51.20;;;;;;5426884;26;19999;-43
2024/04/16 06:21:28;;;;;;;;;;;22.90;51.20;;;;;;5426825;26;19929;-40
2024/04/16 06:23:54;;;;;;;;;;;22.90;51.30;;;;;;5426633;26;19954;-41
2024/04/16 06:26:20;;;;;;;;;;;22.90;51.30;;;;;;5426486;26;19929;-43
2024/04/16 06:28:46;;;;;;;;;;;22.90;51.30;;;;;;5426579;26;19929;-41
2024/04/16 06:31:12;;;;;;;;;;;22.80;51.30;;;;;;5425365;26;19949;-41
2024/04/16 06:33:37;;;;;;;;;;;22.80;51.30;;;;;;5426794;26;19941;-41
2024/04/16 06:36:04;;;;;;;;;;;22.80;51.40;;;;;;5425955;26;19936;-41
2024/04/16 06:38:30;;;;;;;;;;;22.80;51.40;;;;;;5426177;26;19929;-40
2024/04/16 06:40:56;;;;;;;;;;;22.70;51.40;;;;;;5426464;26;19941;-42
2024/04/16 06:43:22;;;;;;;;;;;22.70;51.40;;;;;;5418565;26;20422;-42
2024/04/16 06:45:48;;;;;;;;;;;22.70;51.40;;;;;;5426481;26;20399;-43
2024/04/16 06:48:14;;;;;;;;;;;22.70;52.00;;;;;;5425698;26;19951;-41
2024/04/16 06:50:49;;;;;;;;;;;22.70;51.50;;;;;;5426567;26;19929;-40
2024/04/16 06:53:15;;;;;;;;;;;22.60;51.40;;;;;;5426101;26;19975;-41
2024/04/16 06:55:41;;;;;;;;;;;22.60;51.50;;;;;;5425934;26;19936;-42
2024/04/16 06:58:07;;;;;;;;;;;22.60;51.50;;;;;;5417308;26;19929;-41
2024/04/16 07:00:33;;;;;;;;;;;22.60;51.50;;;;;;5426330;26;19929;-41
2024/04/16 07:02:59;;;;;;;;;;;22.60;51.50;;;;;;5426003;26;19935;-40
2024/04/16 07:05:25;;;;;;;;;;;22.60;51.50;;;;;;5426390;26;19929;-41
2024/04/16 07:07:50;;;;;;;;;;;22.50;51.50;;;;;;5425510;26;19950;-41
2024/04/16 07:10:16;;;;;;;;;;;22.50;51.50;;;;;;5425940;26;19945;-41
2024/04/16 07:12:42;;;;;;;;;;;22.50;51.60;;;;;;5426557;26;19935;-41
2024/04/16 07:15:08;;;;;;;;;;;22.50;51.60;;;;;;5425480;26;19929;-43
2024/04/16 07:17:34;;;;;;;;;;;22.50;51.60;;;;;;5425783;26;19929;-41
2024/04/16 07:20:00;;;;;;;;;;;22.40;51.70;;;;;;5425635;26;20055;-41
2024/04/16 07:22:26;;;;;;;;;;;22.50;51.70;;;;;;5418082;26;19954;-41
2024/04/16 07:24:54;;;;;;;;;;;22.40;51.70;;;;;;5419234;26;19929;-42
2024/04/16 07:27:21;;;;;;;;;;;22.40;51.70;;;;;;5426027;26;19935;-41
2024/04/16 07:29:47;;;;;;;;;;;22.40;51.70;;;;;;5425249;26;19936;-41
2024/04/16 07:32:13;;;;;;;;;;;22.30;51.70;;;;;;5415989;26;21150;-42
2024/04/16 07:34:39;;;;;;;;;;;22.30;51.70;;;;;;5396529;26;20532;-40
2024/04/16 07:37:05;;;;;;;;;;;22.30;51.80;;;;;;5402536;26;19929;-41
2024/04/16 07:39:31;;;;;;;;;;;22.30;51.80;;;;;;5401476;26;19930;-41
2024/04/16 07:41:57;;;;;;;;;;;22.30;51.80;;;;;;5396086;26;19929;-44
2024/04/16 07:44:24;;;;;;;;;;;22.30;51.90;;;;;;5401774;26;19993;-41
2024/04/16 07:46:50;;;;;;;;;;;22.20;51.80;;;;;;5398547;26;19936;-41
2024/04/16 07:49:16;;;;;;;;;;;22.20;51.90;;;;;;5396799;26;20744;-40
2024/04/16 07:51:42;;;;;;;;;;;22.20;51.90;;;;;;5399360;26;20325;-40
2024/04/16 07:54:08;;;;;;;;;;;22.20;51.90;;;;;;5401926;26;19929;-41
2024/04/16 07:56:34;;;;;;;;;;;22.20;52.00;;;;;;5399229;26;19975;-41
2024/04/16 07:59:00;;;;;;;;;;;22.10;51.90;;;;;;5399446;26;19933;-41
2024/04/16 08:01:26;;;;;;;;;;;22.10;51.90;;;;;;5407694;26;20014;-41
2024/04/16 08:03:51;;;;;;;;;;;22.10;52.50;;;;;;5425427;26;19941;-45
2024/04/16 08:06:17;;;;;;;;;;;22.10;52.00;;;;;;5425241;26;19929;-41
2024/04/16 08:08:43;;;;;;;;;;;22.10;52.00;;;;;;5425189;26;19949;-41
2024/04/16 08:11:09;;;;;;;;;;;22.10;52.00;;;;;;5422693;26;19950;-41
2024/04/16 08:13:35;;;;;;;;;;;22.00;52.00;;;;;;5425171;26;19929;-41
2024/04/16 08:16:01;;;;;;;;;;;22.00;52.10;;;;;;5424849;26;19937;-51
2024/04/16 08:18:27;;;;;;;;;;;22.00;52.00;;;;;;5425333;26;19936;-43
2024/04/16 08:20:53;;;;;;;;;;;22.00;52.10;;;;;;5424708;26;19941;-45
2024/04/16 08:23:20;;;;;;;;;;;22.00;52.10;;;;;;5423828;26;19936;-41
2024/04/16 08:25:46;;;;;;;;;;;21.90;52.10;;;;;;5425168;26;20741;-41
2024/04/16 08:28:12;;;;;;;;;;;21.90;52.10;;;;;;5379618;26;19933;-42
2024/04/16 08:30:38;;;;;;;;;;;21.90;52.20;;;;;;5423687;26;19960;-42
2024/04/16 08:33:04;;;;;;;;;;;21.90;52.20;;;;;;5398447;26;19929;-41
2024/04/16 08:35:31;;;;;;;;;;;21.90;52.20;;;;;;5415868;26;19932;-44
2024/04/16 08:37:57;;;;;;;;;;;21.80;52.20;;;;;;5424185;26;19936;-42
2024/04/16 08:40:23;;;;;;;;;;;21.80;52.20;;;;;;5416640;26;19940;-42
2024/04/16 08:42:52;;;;;;;;;;;21.80;52.30;;;;;;5396446;26;19959;-45
2024/04/16 08:45:18;;;;;;;;;;;21.80;52.30;;;;;;5405198;26;19975;-41
2024/04/16 08:47:43;;;;;;;;;;;21.80;52.30;;;;;;5368965;26;19945;-43
2024/04/16 08:50:30;;;;;;;;;;;21.80;52.30;;;;;;5298223;26;19943;-42
2024/04/16 08:52:58;;;;;;;;;;;21.70;52.20;;;;;;5298889;26;19938;-43
2024/04/16 08:55:28;;;;;;;;;;;21.70;52.30;;;;;;5275974;27;19931;-43
2024/04/16 08:57:54;;;;;;;;;;;21.70;52.30;;;;;;5292597;27;19941;-41
2024/04/16 09:00:20;;;;;;;;;;;21.70;52.30;;;;;;5265923;27;19939;-41
2024/04/16 09:02:46;;;;;;;;;;;21.70;52.30;;;;;;5295096;26;19930;-42
2024/04/16 09:05:12;;;;;;;;;;;21.60;52.30;;;;;;5286369;27;19931;-43
2024/04/16 09:07:38;;;;;;;;;;;21.60;52.90;;;;;;5279778;27;19931;-42
2024/04/16 09:10:21;;;;;;;;;;;21.60;52.40;;;;;;5285989;27;19967;-41
2024/04/16 09:12:50;;;;;;;;;;;21.60;52.40;;;;;;5292407;27;19934;-45
2024/04/16 09:15:16;;;;;;;;;;;21.60;52.40;;;;;;5297870;27;19930;-40
2024/04/16 09:17:51;;;;;;;;;;;21.60;52.40;;;;;;5324533;26;19938;-44
2024/04/16 09:20:21;;;;;;;;;;;21.50;52.50;;;;;;5296868;26;19942;-41
2024/04/16 09:22:48;;;;;;;;;;;21.50;52.40;;;;;;5294756;27;19931;-41
2024/04/16 09:25:14;;;;;;;;;;;21.50;52.50;;;;;;5295820;26;19938;-41
2024/04/16 09:27:40;;;;;;;;;;;21.50;52.50;;;;;;5357134;26;19982;-41
2024/04/16 09:30:12;;;;;;;;;;;21.50;52.50;;;;;;5399796;26;19937;-44
2024/04/16 09:32:38;;;;;;;;;;;21.50;52.50;;;;;;5402372;26;20275;-42
2024/04/16 09:35:05;;;;;;;;;;;21.50;52.60;;;;;;5416299;26;19937;-42
2024/04/16 09:37:31;;;;;;;;;;;21.40;52.50;;;;;;5431162;26;19936;-41
2024/04/16 09:39:58;;;;;;;;;;;21.40;52.50;;;;;;5430639;26;20027;-41
2024/04/16 09:42:25;;;;;;;;;;;21.40;52.60;;;;;;5418145;26;19949;-41
2024/04/16 09:44:51;;;;;;;;;;;21.40;52.60;;;;;;5430340;26;20023;-40
2024/04/16 09:47:17;;;;;;;;;;;21.40;52.60;;;;;;5430497;26;19941;-40
2024/04/16 09:49:46;;;;;;;;;;;21.40;52.60;;;;;;5430782;26;19933;-41
2024/04/16 09:52:12;;;;;;;;;;;21.30;52.60;;;;;;5430617;26;19936;-41
2024/04/16 09:54:40;;;;;;;;;;;21.30;52.60;;;;;;5390281;26;20024;-40
2024/04/16 09:57:06;;;;;;;;;;;21.30;52.60;;;;;;5427746;26;19929;-41
2024/04/16 09:59:33;;;;;;;;;;;21.30;52.60;;;;;;5431592;26;19929;-41
2024/04/16 10:01:59;;;;;;;;;;;21.30;52.70;;;;;;5430687;26;19933;-40
2024/04/16 10:04:24;;;;;;;;;;;21.30;52.70;;;;;;5430494;26;19935;-40
2024/04/16 10:06:50;;;;;;;;;;;21.30;52.70;;;;;;5430766;26;20710;-40
2024/04/16 10:09:17;;;;;;;;;;;21.30;52.70;;;;;;5430381;26;19929;-40
2024/04/16 10:11:44;;;;;;;;;;;21.20;52.70;;;;;;5430875;26;19933;-41
2024/04/16 10:14:10;;;;;;;;;;;21.20;52.80;;;;;;5398857;26;19929;-40
2024/04/16 10:16:36;;;;;;;;;;;21.20;52.80;;;;;;5429909;26;19936;-41
2024/04/16 10:19:03;;;;;;;;;;;21.20;52.80;;;;;;5385200;26;19930;-41
2024/04/16 10:21:36;;;;;;;;;;;21.20;52.80;;;;;;5430883;26;19929;-41
2024/04/16 10:24:03;;;;;;;;;;;21.10;52.80;;;;;;5429840;26;19978;-41
2024/04/16 10:26:33;;;;;;;;;;;21.20;52.80;;;;;;5430573;26;19929;-45
2024/04/16 10:28:59;;;;;;;;;;;21.10;52.80;;;;;;5429712;26;19935;-40
2024/04/16 10:31:30;;;;;;;;;;;21.10;52.80;;;;;;5428343;26;19937;-41
2024/04/16 10:33:58;;;;;;;;;;;21.10;52.90;;;;;;5397915;26;19936;-40
2024/04/16 10:36:25;;;;;;;;;;;21.10;52.90;;;;;;5393248;26;19929;-40
2024/04/16 10:38:51;;;;;;;;;;;21.10;52.90;;;;;;5389395;26;19952;-41
2024/04/16 10:41:24;;;;;;;;;;;21.00;52.90;;;;;;5390732;26;19936;-40
2024/04/16 10:43:50;;;;;;;;;;;21.00;53.50;;;;;;5394275;26;24814;-40
2024/04/16 10:46:16;;;;;;;;;;;21.00;52.90;;;;;;5392698;26;19940;-41
2024/04/16 10:48:42;;;;;;;;;;;21.00;52.90;;;;;;5358611;26;19930;-41
2024/04/16 10:51:12;;;;;;;;;;;21.00;52.90;;;;;;5357731;26;19929;-40
2024/04/16 10:53:37;;;;;;;;;;;21.00;52.90;;;;;;5393190;26;19930;-41
2024/04/16 10:56:04;;;;;;;;;;;21.00;53.00;;;;;;5391366;26;19936;-43
2024/04/16 10:58:29;;;;;;;;;;;21.00;53.00;;;;;;5396684;26;19935;-41
2024/04/16 11:00:55;;;;;;;;;;;20.90;53.00;;;;;;5389758;26;19929;-41
2024/04/16 11:03:21;;;;;;;;;;;20.90;53.00;;;;;;5395997;26;19933;-41
2024/04/16 11:05:47;;;;;;;;;;;20.90;53.00;;;;;;5417643;26;19950;-41
2024/04/16 11:08:14;;;;;;;;;;;20.90;53.00;;;;;;5425004;26;20766;-40
2024/04/16 11:10:42;;;;;;;;;;;20.90;53.00;;;;;;5426440;26;19928;-41
2024/04/16 11:13:08;;;;;;;;;;;20.90;53.00;;;;;;5425993;26;19929;-41
2024/04/16 11:15:34;;;;;;;;;;;20.90;53.10;;;;;;5425841;26;19997;-41
2024/04/16 11:18:00;;;;;;;;;;;20.90;53.10;;;;;;5424971;26;19929;-42
2024/04/16 11:20:29;;;;;;;;;;;20.90;53.10;;;;;;5425929;26;19929;-41
2024/04/16 11:22:55;;;;;;;;;;;20.90;53.10;;;;;;5425643;26;20020;-41
2024/04/16 11:25:21;;;;;;;;;;;20.80;53.10;;;;;;5368480;26;19936;-41
2024/04/16 11:27:48;;;;;;;;;;;20.80;53.10;;;;;;5426314;26;19929;-41
2024/04/16 11:30:13;;;;;;;;;;;20.80;53.10;;;;;;5425736;26;20020;-40
2024/04/16 11:32:40;;;;;;;;;;;20.80;53.70;;;;;;5425859;26;19940;-41
2024/04/16 11:35:09;;;;;;;;;;;20.80;53.20;;;;;;5407994;26;19940;-41
2024/04/16 11:37:36;;;;;;;;;;;20.80;53.20;;;;;;5403794;26;19936;-41
2024/04/16 11:40:04;;;;;;;;;;;20.80;53.20;;;;;;5405558;26;19949;-41
2024/04/16 11:42:30;;;;;;;;;;;20.70;53.20;;;;;;5399916;26;19929;-43
2024/04/16 11:44:56;;;;;;;;;;;20.70;53.20;;;;;;5402133;26;20650;-42
2024/04/16 11:47:22;;;;;;;;;;;20.70;53.20;;;;;;5394097;26;19937;-41
2024/04/16 11:49:48;;;;;;;;;;;20.70;53.20;;;;;;5394183;26;19976;-41
2024/04/16 11:52:13;;;;;;;;;;;20.70;53.20;;;;;;5392432;26;19940;-41
2024/04/16 11:54:39;;;;;;;;;;;20.70;53.20;;;;;;5402499;26;19929;-41
2024/04/16 11:57:05;;;;;;;;;;;20.70;53.30;;;;;;5405177;26;19937;-43
2024/04/16 11:59:31;;;;;;;;;;;20.70;53.30;;;;;;5401617;26;19937;-41
2024/04/16 12:01:57;;;;;;;;;;;20.60;53.20;;;;;;5403703;26;19936;-39
2024/04/16 12:04:23;;;;;;;;;;;20.70;53.30;;;;;;5395238;26;19929;-39
2024/04/16 12:06:49;;;;;;;;;;;20.60;53.20;;;;;;5408022;26;19955;-42
2024/04/16 12:09:15;;;;;;;;;;;20.60;53.30;;;;;;5403226;26;19937;-40
2024/04/16 12:11:42;;;;;;;;;;;20.60;53.30;;;;;;5394579;26;19958;-40
2024/04/16 12:14:08;;;;;;;;;;;20.60;53.30;;;;;;5398708;26;19929;-41
2024/04/16 12:16:37;;;;;;;;;;;20.60;53.30;;;;;;5393514;26;19929;-40
2024/04/16 12:19:03;;;;;;;;;;;20.60;53.30;;;;;;5401520;26;19937;-40
2024/04/16 12:21:29;;;;;;;;;;;20.60;53.40;;;;;;5406281;26;19931;-40
2024/04/16 12:23:55;;;;;;;;;;;20.60;53.40;;;;;;5394813;26;19936;-41
2024/04/16 12:26:21;;;;;;;;;;;20.60;53.40;;;;;;5401138;26;19937;-41
2024/04/16 12:28:47;;;;;;;;;;;20.60;53.40;;;;;;5403900;26;20039;-40
2024/04/16 12:31:13;;;;;;;;;;;20.60;53.40;;;;;;5406776;26;19930;-41
2024/04/16 12:33:39;;;;;;;;;;;20.60;53.40;;;;;;5425225;26;19936;-44
2024/04/16 12:36:05;;;;;;;;;;;20.60;53.40;;;;;;5423938;26;20380;-45
2024/04/16 12:38:31;;;;;;;;;;;20.60;53.40;;;;;;5424742;26;19982;-41
2024/04/16 12:40:57;;;;;;;;;;;20.50;53.40;;;;;;5424722;26;19929;-42
2024/04/16 12:43:23;;;;;;;;;;;20.50;53.40;;;;;;5424418;26;19936;-41
2024/04/16 12:45:49;;;;;;;;;;;20.50;53.40;;;;;;5424305;26;19956;-41
2024/04/16 12:48:19;;;;;;;;;;;20.50;53.40;;;;;;5419034;26;20059;-43
2024/04/16 12:50:45;;;;;;;;;;;20.50;53.40;;;;;;5424929;26;19929;-41
2024/04/16 12:53:11;;;;;;;;;;;20.50;53.40;;;;;;5424678;26;19940;-41
2024/04/16 12:55:36;;;;;;;;;;;20.50;53.50;;;;;;5423132;26;20738;-42
2024/04/16 12:58:02;;;;;;;;;;;20.50;53.50;;;;;;5423053;26;19944;-41
2024/04/16 13:00:28;;;;;;;;;;;20.50;53.50;;;;;;5424970;26;19937;-40
2024/04/16 13:02:54;;;;;;;;;;;20.50;53.40;;;;;;5424332;26;19929;-41
2024/04/16 13:05:20;;;;;;;;;;;20.50;53.50;;;;;;5424261;26;19937;-40
2024/04/16 13:07:46;;;;;;;;;;;20.50;53.50;;;;;;5424852;26;19936;-41
2024/04/16 13:10:12;;;;;;;;;;;20.50;53.50;;;;;;5421052;26;19937;-40
2024/04/16 13:12:39;;;;;;;;;;;20.50;53.50;;;;;;5423992;26;19936;-41
2024/04/16 13:15:05;;;;;;;;;;;20.40;53.50;;;;;;5423877;26;19941;-42
2024/04/16 13:17:31;;;;;;;;;;;20.40;53.50;;;;;;5424139;26;19944;-44
2024/04/16 13:19:58;;;;;;;;;;;20.40;53.50;;;;;;5424228;26;19929;-44
2024/04/16 13:22:24;;;;;;;;;;;20.40;53.50;;;;;;5423829;26;19935;-40
2024/04/16 13:24:50;;;;;;;;;;;20.40;53.50;;;;;;5424803;26;19961;-41
2024/04/16 13:27:16;;;;;;;;;;;20.40;53.50;;;;;;5423411;26;19929;-41
2024/04/16 13:29:42;;;;;;;;;;;20.40;53.50;;;;;;5423900;26;20307;-41
2024/04/16 13:32:08;;;;;;;;;;;20.40;53.50;;;;;;5422873;26;19933;-42
2024/04/16 13:34:34;;;;;;;;;;;20.40;53.50;;;;;;5423872;26;19929;-41
2024/04/16 13:37:00;;;;;;;;;;;20.40;53.50;;;;;;5423137;26;19929;-40
2024/04/16 13:39:26;;;;;;;;;;;20.40;53.50;;;;;;5424022;26;19929;-40
2024/04/16 13:41:52;;;;;;;;;;;20.40;53.50;;;;;;5424209;26;19933;-44
2024/04/16 13:44:18;;;;;;;;;;;20.40;53.50;;;;;;5423466;26;19941;-40
2024/04/16 13:46:47;;;;;;;;;;;20.40;53.50;;;;;;5423776;26;20026;-46
2024/04/16 13:49:14;;;;;;;;;;;20.40;53.50;;;;;;5423212;26;19933;-43
2024/04/16 13:51:40;;;;;;;;;;;20.40;53.50;;;;;;5423781;26;19940;-41
2024/04/16 13:54:05;;;;;;;;;;;20.40;53.50;;;;;;5423353;26;19937;-45
2024/04/16 13:56:31;;;;;;;;;;;20.40;53.60;;;;;;5423911;26;19933;-41
2024/04/16 13:58:58;;;;;;;;;;;20.40;53.50;;;;;;5423173;26;19995;-41
2024/04/16 14:01:24;;;;;;;;;;;20.40;53.50;;;;;;5422926;26;19936;-42
2024/04/16 14:03:50;;;;;;;;;;;20.40;53.60;;;;;;5423337;26;19929;-44
2024/04/16 14:06:16;;;;;;;;;;;20.40;53.50;;;;;;5423088;26;19929;-41
2024/04/16 14:08:42;;;;;;;;;;;20.40;53.50;;;;;;5425515;26;19936;-41
2024/04/16 14:11:08;;;;;;;;;;;20.40;53.50;;;;;;5426629;26;20363;-47
2024/04/16 14:13:34;;;;;;;;;;;20.40;53.50;;;;;;5427481;26;19961;-43